createdAt,value
2022-12-18T00:00:02.895Z,991.35
2022-12-18T00:01:02.877Z,991.21
2022-12-18T00:02:03.057Z,991.48
2022-12-18T00:03:03.158Z,991.46
2022-12-18T00:04:03.278Z,991.35
2022-12-18T00:05:02.954Z,991.53
2022-12-18T00:06:02.896Z,991.27
2022-12-18T00:07:03.861Z,991.43
2022-12-18T00:08:09.711Z,991.50
2022-12-18T00:09:03.810Z,991.56
2022-12-18T00:10:03.677Z,991.38
2022-12-18T00:11:07.375Z,991.38
2022-12-18T00:13:09.980Z,991.46
2022-12-18T00:14:03.376Z,991.27
2022-12-18T00:15:03.282Z,991.32
2022-12-18T00:16:03.399Z,991.41
2022-12-18T00:17:03.367Z,991.35
2022-12-18T00:18:03.347Z,991.43
2022-12-18T00:19:03.277Z,991.48
2022-12-18T00:20:03.314Z,991.35
2022-12-18T00:21:03.254Z,991.24
2022-12-18T00:22:03.123Z,991.46
2022-12-18T00:23:03.058Z,991.35
2022-12-18T00:24:03.065Z,991.30
2022-12-18T00:25:02.977Z,991.30
2022-12-18T00:26:02.913Z,991.32
2022-12-18T00:27:02.879Z,991.30
2022-12-18T00:28:03.776Z,991.41
2022-12-18T00:29:06.019Z,991.46
2022-12-18T00:30:03.783Z,991.43
2022-12-18T00:31:03.907Z,991.38
2022-12-18T00:32:04.032Z,991.35
2022-12-18T00:33:03.841Z,991.41
2022-12-18T00:34:03.791Z,991.35
2022-12-18T00:35:03.674Z,991.27
2022-12-18T00:36:03.744Z,991.38
2022-12-18T00:37:03.611Z,991.38
2022-12-18T00:38:03.535Z,991.36
2022-12-18T00:39:03.484Z,991.41
2022-12-18T00:40:03.388Z,991.22
2022-12-18T00:41:03.418Z,991.48
2022-12-18T00:42:03.207Z,991.27
2022-12-18T00:43:03.276Z,991.30
2022-12-18T00:44:03.272Z,991.30
2022-12-18T00:45:12.246Z,991.44
2022-12-18T00:46:03.427Z,991.54
2022-12-18T00:47:03.201Z,991.44
2022-12-18T00:48:03.088Z,991.47
2022-12-18T00:49:02.991Z,991.47
2022-12-18T00:50:02.914Z,991.25
2022-12-18T00:51:03.783Z,991.22
2022-12-18T00:52:03.754Z,991.36
2022-12-18T00:53:03.605Z,991.33
2022-12-18T00:54:03.596Z,991.47
2022-12-18T00:55:06.889Z,991.41
2022-12-18T00:56:03.440Z,991.30
2022-12-18T00:57:03.349Z,991.36
2022-12-18T00:58:03.183Z,991.41
2022-12-18T00:59:03.119Z,991.41
2022-12-18T01:00:03.385Z,991.48
2022-12-18T01:01:03.126Z,991.44
2022-12-18T01:02:03.218Z,991.47
2022-12-18T01:03:03.981Z,991.33
2022-12-18T01:04:03.764Z,991.47
2022-12-18T01:05:03.730Z,991.39
2022-12-18T01:06:03.629Z,991.48
2022-12-18T01:07:03.692Z,991.48
2022-12-18T01:08:03.643Z,991.44
2022-12-18T01:09:03.535Z,991.41
2022-12-18T01:10:03.764Z,991.51
2022-12-18T01:11:03.604Z,991.48
2022-12-18T01:12:03.528Z,991.44
2022-12-18T01:13:03.395Z,991.39
2022-12-18T01:14:03.386Z,991.57
2022-12-18T01:15:03.413Z,991.51
2022-12-18T01:16:03.472Z,991.59
2022-12-18T01:17:03.313Z,991.51
2022-12-18T01:18:03.307Z,991.57
2022-12-18T01:19:03.324Z,991.67
2022-12-18T01:20:03.215Z,991.68
2022-12-18T01:21:03.132Z,991.70
2022-12-18T01:22:03.095Z,991.54
2022-12-18T01:23:03.071Z,991.65
2022-12-18T01:24:02.964Z,991.54
2022-12-18T01:25:02.954Z,991.62
2022-12-18T01:26:03.797Z,991.76
2022-12-18T01:27:03.805Z,991.65
2022-12-18T01:28:03.870Z,991.81
2022-12-18T01:29:03.719Z,991.73
2022-12-18T01:30:03.642Z,991.60
2022-12-18T01:31:03.607Z,991.84
2022-12-18T01:32:03.627Z,991.84
2022-12-18T01:33:03.577Z,991.81
2022-12-18T01:34:03.483Z,991.84
2022-12-18T01:35:03.354Z,991.73
2022-12-18T01:36:03.319Z,991.84
2022-12-18T01:37:03.249Z,992.00
2022-12-18T01:38:03.121Z,991.84
2022-12-18T01:39:03.209Z,991.98
2022-12-18T01:40:03.128Z,992.00
2022-12-18T01:41:03.099Z,992.00
2022-12-18T01:42:03.103Z,991.76
2022-12-18T01:43:03.061Z,991.90
2022-12-18T01:44:02.982Z,991.90
2022-12-18T01:45:02.945Z,991.87
2022-12-18T01:46:04.000Z,992.00
2022-12-18T01:47:03.770Z,991.87
2022-12-18T01:48:03.785Z,991.79
2022-12-18T01:49:03.714Z,991.79
2022-12-18T01:50:03.793Z,991.92
2022-12-18T01:51:03.636Z,991.76
2022-12-18T01:52:03.668Z,991.92
2022-12-18T01:53:03.787Z,991.95
2022-12-18T01:54:03.666Z,992.03
2022-12-18T01:55:03.610Z,991.84
2022-12-18T01:56:03.727Z,991.98
2022-12-18T01:57:03.765Z,991.92
2022-12-18T01:58:03.749Z,991.92
2022-12-18T01:59:03.673Z,991.84
2022-12-18T02:00:03.627Z,992.06
2022-12-18T02:01:03.649Z,991.98
2022-12-18T02:02:03.928Z,991.84
2022-12-18T02:03:03.267Z,991.90
2022-12-18T02:04:03.131Z,991.76
2022-12-18T02:05:02.981Z,991.90
2022-12-18T02:06:03.499Z,992.06
2022-12-18T02:07:03.435Z,991.92
2022-12-18T02:08:03.429Z,991.84
2022-12-18T02:09:03.220Z,991.92
2022-12-18T02:10:03.247Z,991.81
2022-12-18T02:11:03.191Z,991.73
2022-12-18T02:12:03.191Z,991.90
2022-12-18T02:13:03.179Z,991.79
2022-12-18T02:14:03.862Z,991.63
2022-12-18T02:15:03.230Z,991.73
2022-12-18T02:16:03.128Z,991.87
2022-12-18T02:17:03.058Z,991.68
2022-12-18T02:18:03.019Z,991.82
2022-12-18T02:19:02.992Z,991.82
2022-12-18T02:20:02.947Z,991.79
2022-12-18T02:21:03.746Z,991.76
2022-12-18T02:22:05.611Z,991.87
2022-12-18T02:23:03.595Z,991.71
2022-12-18T02:24:03.646Z,991.87
2022-12-18T02:25:03.574Z,991.79
2022-12-18T02:26:03.532Z,991.87
2022-12-18T02:27:03.544Z,991.76
2022-12-18T02:28:03.521Z,991.98
2022-12-18T02:29:03.396Z,991.82
2022-12-18T02:30:03.353Z,991.90
2022-12-18T02:31:03.609Z,991.95
2022-12-18T02:32:03.272Z,991.87
2022-12-18T02:33:03.183Z,991.84
2022-12-18T02:34:03.090Z,991.79
2022-12-18T02:35:03.086Z,991.76
2022-12-18T02:36:03.039Z,991.74
2022-12-18T02:37:03.076Z,991.74
2022-12-18T02:38:02.958Z,991.74
2022-12-18T02:39:03.083Z,991.65
2022-12-18T02:40:02.938Z,991.90
2022-12-18T02:41:03.916Z,991.65
2022-12-18T02:42:03.776Z,991.79
2022-12-18T02:43:03.690Z,991.71
2022-12-18T02:44:03.672Z,991.76
2022-12-18T02:45:03.578Z,991.71
2022-12-18T02:46:03.741Z,991.68
2022-12-18T02:47:03.556Z,991.76
2022-12-18T02:48:03.542Z,991.82
2022-12-18T02:49:03.619Z,991.82
2022-12-18T02:50:03.494Z,991.71
2022-12-18T02:51:03.486Z,991.84
2022-12-18T02:52:03.331Z,991.71
2022-12-18T02:53:03.334Z,991.79
2022-12-18T02:54:03.171Z,991.66
2022-12-18T02:55:03.220Z,991.82
2022-12-18T02:56:03.229Z,991.71
2022-12-18T02:57:03.152Z,991.71
2022-12-18T02:58:03.134Z,991.63
2022-12-18T02:59:02.990Z,991.71
2022-12-18T03:00:03.048Z,991.63
2022-12-18T03:01:03.157Z,991.55
2022-12-18T03:02:06.096Z,991.52
2022-12-18T03:03:04.083Z,991.60
2022-12-18T03:04:03.984Z,991.69
2022-12-18T03:05:03.742Z,991.71
2022-12-18T03:06:03.682Z,991.66
2022-12-18T03:07:03.605Z,991.77
2022-12-18T03:08:03.509Z,991.60
2022-12-18T03:09:03.449Z,991.60
2022-12-18T03:10:03.501Z,991.71
2022-12-18T03:11:03.350Z,991.63
2022-12-18T03:12:03.298Z,991.69
2022-12-18T03:13:03.313Z,991.71
2022-12-18T03:14:03.399Z,991.77
2022-12-18T03:15:03.300Z,991.85
2022-12-18T03:16:03.344Z,991.79
2022-12-18T03:17:03.331Z,991.55
2022-12-18T03:18:03.084Z,991.55
2022-12-18T03:19:03.142Z,991.71
2022-12-18T03:20:02.979Z,991.58
2022-12-18T03:21:03.914Z,991.58
2022-12-18T03:22:03.856Z,991.66
2022-12-18T03:23:03.671Z,991.58
2022-12-18T03:24:03.660Z,991.58
2022-12-18T03:25:03.762Z,991.71
2022-12-18T03:26:07.822Z,991.69
2022-12-18T03:27:03.507Z,991.71
2022-12-18T03:28:03.450Z,991.63
2022-12-18T03:29:03.267Z,991.66
2022-12-18T03:30:03.233Z,991.66
2022-12-18T03:31:03.362Z,991.63
2022-12-18T03:32:03.177Z,991.66
2022-12-18T03:33:03.207Z,991.80
2022-12-18T03:34:03.085Z,991.77
2022-12-18T03:35:03.092Z,991.85
2022-12-18T03:36:03.102Z,991.85
2022-12-18T03:37:02.935Z,991.82
2022-12-18T03:38:02.992Z,991.71
2022-12-18T03:39:02.946Z,991.88
2022-12-18T03:40:03.832Z,991.82
2022-12-18T03:41:03.785Z,991.93
2022-12-18T03:42:03.078Z,991.88
2022-12-18T03:43:02.890Z,991.72
2022-12-18T03:44:03.846Z,991.77
2022-12-18T03:45:03.827Z,991.77
2022-12-18T03:46:03.001Z,991.85
2022-12-18T03:47:03.891Z,991.72
2022-12-18T03:48:03.887Z,991.82
2022-12-18T03:49:03.840Z,991.88
2022-12-18T03:50:12.580Z,991.82
2022-12-18T03:51:03.741Z,991.72
2022-12-18T03:52:03.586Z,991.77
2022-12-18T03:53:03.429Z,991.77
2022-12-18T03:54:03.591Z,991.93
2022-12-18T03:55:03.439Z,991.88
2022-12-18T03:56:03.527Z,991.69
2022-12-18T03:57:03.559Z,991.99
2022-12-18T03:58:03.489Z,991.96
2022-12-18T03:59:03.381Z,991.99
2022-12-18T04:00:03.863Z,991.99
2022-12-18T04:01:03.386Z,992.12
2022-12-18T04:02:03.670Z,991.91
2022-12-18T04:03:03.338Z,992.01
2022-12-18T04:04:03.425Z,992.04
2022-12-18T04:05:03.334Z,991.96
2022-12-18T04:06:03.235Z,991.99
2022-12-18T04:07:03.226Z,991.85
2022-12-18T04:08:03.174Z,991.80
2022-12-18T04:09:03.088Z,991.96
2022-12-18T04:10:03.154Z,991.96
2022-12-18T04:11:03.447Z,991.96
2022-12-18T04:12:03.104Z,992.01
2022-12-18T04:13:03.139Z,991.93
2022-12-18T04:14:07.696Z,991.77
2022-12-18T04:15:03.166Z,992.02
2022-12-18T04:16:03.269Z,992.04
2022-12-18T04:17:03.089Z,992.01
2022-12-18T04:18:02.987Z,991.91
2022-12-18T04:19:03.398Z,992.04
2022-12-18T04:20:03.028Z,991.99
2022-12-18T04:21:03.012Z,991.93
2022-12-18T04:22:02.993Z,991.96
2022-12-18T04:23:02.940Z,992.15
2022-12-18T04:24:03.762Z,992.02
2022-12-18T04:25:03.704Z,991.93
2022-12-18T04:26:03.677Z,991.77
2022-12-18T04:27:03.688Z,992.07
2022-12-18T04:28:03.673Z,991.96
2022-12-18T04:29:03.610Z,991.99
2022-12-18T04:30:03.600Z,991.91
2022-12-18T04:31:03.676Z,991.77
2022-12-18T04:32:03.526Z,992.04
2022-12-18T04:33:03.483Z,991.77
2022-12-18T04:34:03.445Z,991.88
2022-12-18T04:35:03.436Z,991.80
2022-12-18T04:36:03.404Z,991.96
2022-12-18T04:37:03.333Z,991.91
2022-12-18T04:38:03.307Z,991.72
2022-12-18T04:39:03.189Z,991.88
2022-12-18T04:40:03.148Z,991.80
2022-12-18T04:41:03.093Z,991.91
2022-12-18T04:42:03.064Z,991.91
2022-12-18T04:43:03.065Z,991.69
2022-12-18T04:44:02.937Z,991.85
2022-12-18T04:45:03.029Z,992.02
2022-12-18T04:46:02.960Z,992.02
2022-12-18T04:47:03.797Z,991.77
2022-12-18T04:48:03.708Z,992.02
2022-12-18T04:49:03.711Z,991.80
2022-12-18T04:50:03.758Z,991.94
2022-12-18T04:51:03.705Z,991.83
2022-12-18T04:52:03.648Z,991.85
2022-12-18T04:53:03.682Z,991.80
2022-12-18T04:54:03.619Z,991.77
2022-12-18T04:55:03.485Z,991.91
2022-12-18T04:56:03.462Z,991.77
2022-12-18T04:57:03.401Z,991.77
2022-12-18T04:58:03.398Z,991.80
2022-12-18T04:59:03.358Z,991.94
2022-12-18T05:00:03.236Z,991.88
2022-12-18T05:01:03.380Z,991.77
2022-12-18T05:02:03.488Z,991.99
2022-12-18T05:03:03.362Z,991.91
2022-12-18T05:04:03.247Z,992.05
2022-12-18T05:05:02.996Z,991.96
2022-12-18T05:06:02.893Z,991.99
2022-12-18T05:07:03.858Z,992.15
2022-12-18T05:08:03.778Z,992.18
2022-12-18T05:09:03.737Z,991.96
2022-12-18T05:10:03.564Z,992.02
2022-12-18T05:11:03.569Z,992.07
2022-12-18T05:12:03.525Z,992.05
2022-12-18T05:13:03.169Z,991.86
2022-12-18T05:14:03.235Z,991.99
2022-12-18T05:15:03.053Z,992.05
2022-12-18T05:16:03.169Z,992.18
2022-12-18T05:17:03.067Z,992.05
2022-12-18T05:18:03.010Z,992.13
2022-12-18T05:19:02.904Z,992.02
2022-12-18T05:20:02.924Z,992.02
2022-12-18T05:21:02.958Z,992.05
2022-12-18T05:22:02.879Z,992.08
2022-12-18T05:23:02.905Z,992.07
2022-12-18T05:24:03.876Z,992.08
2022-12-18T05:25:05.754Z,992.07
2022-12-18T05:26:03.190Z,992.18
2022-12-18T05:27:03.202Z,992.10
2022-12-18T05:28:03.087Z,992.29
2022-12-18T05:29:03.093Z,992.26
2022-12-18T05:30:03.016Z,992.10
2022-12-18T05:31:03.096Z,992.35
2022-12-18T05:32:02.943Z,992.26
2022-12-18T05:33:02.898Z,992.07
2022-12-18T05:34:02.849Z,992.05
2022-12-18T05:35:03.875Z,992.24
2022-12-18T05:36:02.980Z,992.32
2022-12-18T05:37:02.906Z,992.13
2022-12-18T05:38:03.854Z,992.16
2022-12-18T05:39:06.025Z,992.16
2022-12-18T05:40:03.672Z,992.18
2022-12-18T05:41:03.618Z,991.99
2022-12-18T05:42:03.705Z,992.08
2022-12-18T05:43:03.665Z,992.10
2022-12-18T05:44:03.626Z,992.05
2022-12-18T05:45:03.575Z,992.24
2022-12-18T05:46:03.532Z,992.18
2022-12-18T05:47:03.855Z,992.02
2022-12-18T05:48:03.361Z,992.05
2022-12-18T05:49:03.305Z,992.18
2022-12-18T05:50:03.215Z,992.10
2022-12-18T05:51:03.247Z,992.24
2022-12-18T05:52:03.106Z,992.08
2022-12-18T05:53:03.163Z,992.18
2022-12-18T05:54:03.619Z,992.32
2022-12-18T05:55:03.406Z,992.16
2022-12-18T05:56:03.356Z,992.16
2022-12-18T05:57:03.374Z,992.21
2022-12-18T05:58:03.323Z,992.18
2022-12-18T05:59:03.402Z,992.27
2022-12-18T06:00:03.276Z,992.19
2022-12-18T06:01:03.149Z,992.24
2022-12-18T06:02:03.475Z,992.10
2022-12-18T06:03:03.411Z,992.32
2022-12-18T06:04:03.731Z,992.29
2022-12-18T06:05:03.051Z,992.13
2022-12-18T06:06:03.057Z,992.10
2022-12-18T06:07:03.874Z,992.40
2022-12-18T06:08:03.881Z,992.32
2022-12-18T06:09:03.769Z,992.35
2022-12-18T06:10:03.654Z,992.24
2022-12-18T06:11:03.755Z,992.32
2022-12-18T06:12:03.694Z,992.35
2022-12-18T06:13:03.647Z,992.51
2022-12-18T06:14:03.657Z,992.56
2022-12-18T06:15:03.564Z,992.35
2022-12-18T06:16:03.675Z,992.27
2022-12-18T06:17:03.389Z,992.43
2022-12-18T06:18:03.383Z,992.32
2022-12-18T06:19:03.282Z,992.40
2022-12-18T06:20:03.234Z,992.35
2022-12-18T06:21:03.265Z,992.48
2022-12-18T06:22:03.246Z,992.32
2022-12-18T06:23:03.220Z,992.32
2022-12-18T06:24:03.106Z,992.40
2022-12-18T06:25:03.297Z,992.35
2022-12-18T06:26:02.895Z,992.38
2022-12-18T06:27:03.149Z,992.32
2022-12-18T06:28:03.028Z,992.38
2022-12-18T06:29:02.908Z,992.32
2022-12-18T06:30:03.631Z,992.46
2022-12-18T06:31:03.651Z,992.46
2022-12-18T06:32:03.732Z,992.43
2022-12-18T06:33:03.556Z,992.35
2022-12-18T06:34:04.249Z,992.48
2022-12-18T06:35:03.466Z,992.56
2022-12-18T06:36:03.505Z,992.38
2022-12-18T06:37:03.463Z,992.46
2022-12-18T06:38:03.507Z,992.59
2022-12-18T06:39:03.386Z,992.40
2022-12-18T06:40:03.312Z,992.46
2022-12-18T06:41:03.239Z,992.46
2022-12-18T06:42:03.163Z,992.40
2022-12-18T06:43:03.200Z,992.54
2022-12-18T06:44:03.140Z,992.51
2022-12-18T06:45:03.111Z,992.51
2022-12-18T06:46:03.179Z,992.38
2022-12-18T06:47:02.910Z,992.46
2022-12-18T06:48:02.879Z,992.40
2022-12-18T06:49:03.809Z,992.38
2022-12-18T06:50:03.748Z,992.40
2022-12-18T06:51:03.607Z,992.56
2022-12-18T06:52:03.338Z,992.51
2022-12-18T06:53:04.127Z,992.46
2022-12-18T06:54:03.233Z,992.35
2022-12-18T06:55:03.168Z,992.35
2022-12-18T06:56:10.079Z,992.29
2022-12-18T06:57:03.067Z,992.43
2022-12-18T06:58:03.078Z,992.46
2022-12-18T06:59:02.932Z,992.24
2022-12-18T07:00:02.958Z,992.27
2022-12-18T07:01:03.879Z,992.35
2022-12-18T07:02:04.066Z,992.19
2022-12-18T07:03:03.883Z,992.40
2022-12-18T07:04:03.648Z,992.38
2022-12-18T07:05:11.011Z,992.38
2022-12-18T07:06:03.558Z,992.43
2022-12-18T07:07:03.788Z,992.35
2022-12-18T07:08:03.848Z,992.38
2022-12-18T07:09:03.754Z,992.29
2022-12-18T07:10:03.784Z,992.46
2022-12-18T07:11:03.749Z,992.35
2022-12-18T07:12:03.667Z,992.43
2022-12-18T07:13:03.503Z,992.32
2022-12-18T07:14:03.580Z,992.29
2022-12-18T07:15:03.566Z,992.37
2022-12-18T07:16:03.566Z,992.21
2022-12-18T07:17:03.574Z,992.13
2022-12-18T07:18:03.420Z,992.10
2022-12-18T07:19:03.405Z,992.27
2022-12-18T07:20:03.375Z,992.18
2022-12-18T07:21:03.256Z,992.18
2022-12-18T07:22:03.424Z,992.21
2022-12-18T07:23:03.209Z,992.35
2022-12-18T07:24:03.239Z,992.29
2022-12-18T07:25:03.185Z,992.24
2022-12-18T07:26:03.102Z,992.10
2022-12-18T07:27:03.138Z,992.37
2022-12-18T07:28:03.585Z,992.29
2022-12-18T07:29:03.087Z,992.24
2022-12-18T07:30:03.087Z,992.24
2022-12-18T07:31:02.997Z,992.13
2022-12-18T07:32:03.188Z,992.29
2022-12-18T07:33:02.885Z,992.18
2022-12-18T07:34:03.857Z,992.13
2022-12-18T07:35:03.761Z,992.35
2022-12-18T07:36:03.830Z,992.10
2022-12-18T07:37:03.847Z,992.05
2022-12-18T07:38:03.774Z,992.13
2022-12-18T07:39:03.705Z,992.16
2022-12-18T07:40:03.622Z,992.05
2022-12-18T07:41:06.331Z,992.15
2022-12-18T07:42:03.667Z,992.13
2022-12-18T07:43:03.698Z,992.10
2022-12-18T07:44:03.612Z,992.21
2022-12-18T07:45:03.454Z,992.48
2022-12-18T07:46:03.628Z,992.15
2022-12-18T07:47:11.721Z,992.18
2022-12-18T07:48:03.323Z,992.26
2022-12-18T07:49:03.193Z,992.23
2022-12-18T07:50:03.151Z,992.20
2022-12-18T07:51:03.182Z,992.18
2022-12-18T07:52:03.072Z,992.39
2022-12-18T07:53:03.033Z,992.28
2022-12-18T07:54:02.919Z,992.31
2022-12-18T07:55:02.943Z,992.36
2022-12-18T07:56:26.913Z,992.28
2022-12-18T07:57:03.795Z,992.34
2022-12-18T07:58:03.851Z,992.31
2022-12-18T07:59:03.804Z,992.44
2022-12-18T08:00:04.096Z,992.25
2022-12-18T08:01:03.770Z,992.28
2022-12-18T08:02:03.846Z,992.55
2022-12-18T08:03:03.465Z,992.36
2022-12-18T08:04:03.306Z,992.42
2022-12-18T08:05:03.277Z,992.36
2022-12-18T08:06:03.300Z,992.63
2022-12-18T08:07:03.190Z,992.44
2022-12-18T08:08:03.169Z,992.58
2022-12-18T08:09:03.252Z,992.58
2022-12-18T08:10:04.362Z,992.58
2022-12-18T08:11:03.086Z,992.79
2022-12-18T08:12:03.024Z,992.66
2022-12-18T08:13:06.175Z,992.74
2022-12-18T08:14:02.997Z,992.50
2022-12-18T08:15:03.342Z,992.60
2022-12-18T08:16:03.048Z,992.55
2022-12-18T08:17:03.214Z,992.68
2022-12-18T08:18:03.192Z,992.66
2022-12-18T08:19:03.229Z,992.63
2022-12-18T08:20:03.178Z,992.55
2022-12-18T08:21:03.108Z,992.65
2022-12-18T08:22:03.048Z,992.57
2022-12-18T08:23:02.881Z,992.65
2022-12-18T08:24:03.919Z,992.60
2022-12-18T08:25:06.180Z,992.43
2022-12-18T08:26:03.890Z,992.49
2022-12-18T08:27:30.497Z,992.49
2022-12-18T08:28:03.729Z,992.70
2022-12-18T08:29:03.715Z,992.51
2022-12-18T08:30:03.688Z,992.62
2022-12-18T08:31:03.759Z,992.65
2022-12-18T08:32:03.675Z,992.46
2022-12-18T08:33:03.479Z,992.64
2022-12-18T08:34:03.419Z,992.56
2022-12-18T08:35:03.386Z,992.43
2022-12-18T08:36:03.413Z,992.48
2022-12-18T08:37:03.231Z,992.45
2022-12-18T08:38:03.233Z,992.40
2022-12-18T08:39:03.093Z,992.51
2022-12-18T08:40:03.333Z,992.48
2022-12-18T08:41:02.930Z,992.50
2022-12-18T08:42:10.496Z,992.50
2022-12-18T08:43:03.786Z,992.42
2022-12-18T08:44:03.781Z,992.48
2022-12-18T08:45:03.711Z,992.31
2022-12-18T08:46:03.721Z,992.34
2022-12-18T08:47:03.609Z,992.39
2022-12-18T08:48:03.613Z,992.26
2022-12-18T08:49:04.182Z,992.31
2022-12-18T08:50:03.425Z,992.28
2022-12-18T08:51:03.486Z,992.45
2022-12-18T08:52:03.361Z,992.44
2022-12-18T08:53:03.394Z,992.50
2022-12-18T08:54:06.326Z,992.25
2022-12-18T08:55:03.302Z,992.28
2022-12-18T08:56:03.233Z,992.25
2022-12-18T08:57:03.166Z,992.20
2022-12-18T08:58:03.193Z,992.20
2022-12-18T08:59:03.021Z,992.20
2022-12-18T09:00:03.079Z,992.30
2022-12-18T09:01:03.221Z,992.41
2022-12-18T09:02:03.523Z,992.14
2022-12-18T09:03:03.102Z,992.22
2022-12-18T09:04:02.981Z,992.08
2022-12-18T09:05:03.007Z,992.11
2022-12-18T09:06:02.929Z,992.08
2022-12-18T09:07:02.954Z,992.11
2022-12-18T09:08:02.893Z,992.06
2022-12-18T09:09:03.729Z,992.00
2022-12-18T09:10:03.831Z,992.00
2022-12-18T09:11:02.882Z,992.11
2022-12-18T09:12:02.863Z,992.19
2022-12-18T09:13:02.898Z,992.00
2022-12-18T09:14:03.019Z,991.83
2022-12-18T09:15:02.971Z,991.86
2022-12-18T09:16:02.920Z,991.86
2022-12-18T09:17:03.149Z,991.91
2022-12-18T09:18:02.910Z,991.97
2022-12-18T09:19:03.806Z,992.10
2022-12-18T09:20:03.789Z,992.07
2022-12-18T09:21:03.844Z,991.85
2022-12-18T09:22:03.728Z,992.04
2022-12-18T09:23:03.658Z,992.07
2022-12-18T09:24:03.895Z,991.99
2022-12-18T09:25:03.681Z,991.90
2022-12-18T09:26:03.539Z,992.09
2022-12-18T09:27:03.555Z,992.09
2022-12-18T09:28:03.586Z,992.15
2022-12-18T09:29:03.468Z,992.06
2022-12-18T09:30:03.432Z,992.04
2022-12-18T09:31:03.489Z,991.84
2022-12-18T09:32:03.414Z,992.03
2022-12-18T09:33:04.005Z,992.01
2022-12-18T09:34:03.192Z,992.11
2022-12-18T09:35:03.203Z,992.11
2022-12-18T09:36:03.139Z,992.00
2022-12-18T09:37:03.142Z,991.89
2022-12-18T09:38:03.198Z,992.06
2022-12-18T09:39:08.907Z,991.92
2022-12-18T09:40:03.059Z,991.89
2022-12-18T09:41:03.001Z,992.05
2022-12-18T09:42:02.989Z,992.00
2022-12-18T09:43:02.895Z,991.92
2022-12-18T09:44:03.943Z,991.89
2022-12-18T09:45:03.906Z,991.72
2022-12-18T09:46:03.928Z,991.86
2022-12-18T09:47:03.684Z,991.97
2022-12-18T09:48:06.024Z,991.77
2022-12-18T09:49:03.513Z,991.83
2022-12-18T09:50:03.539Z,991.66
2022-12-18T09:51:03.440Z,991.88
2022-12-18T09:52:03.390Z,991.58
2022-12-18T09:53:03.299Z,991.72
2022-12-18T09:54:03.393Z,991.42
2022-12-18T09:55:03.410Z,991.63
2022-12-18T09:56:03.266Z,991.63
2022-12-18T09:57:03.268Z,991.52
2022-12-18T09:58:03.305Z,991.52
2022-12-18T09:59:03.234Z,991.58
2022-12-18T10:00:03.161Z,991.66
2022-12-18T10:01:03.091Z,991.57
2022-12-18T10:02:03.159Z,991.68
2022-12-18T10:03:03.276Z,991.57
2022-12-18T10:04:03.957Z,991.52
2022-12-18T10:05:03.720Z,991.52
2022-12-18T10:06:03.755Z,991.65
2022-12-18T10:07:09.552Z,991.62
2022-12-18T10:08:03.699Z,991.76
2022-12-18T10:10:03.709Z,991.62
2022-12-18T10:11:03.681Z,991.76
2022-12-18T10:12:04.158Z,991.65
2022-12-18T10:13:06.251Z,991.56
2022-12-18T10:14:03.533Z,991.56
2022-12-18T10:15:03.445Z,991.44
2022-12-18T10:16:03.508Z,991.70
2022-12-18T10:17:03.400Z,991.48
2022-12-18T10:18:03.556Z,991.59
2022-12-18T10:19:03.389Z,991.59
2022-12-18T10:20:03.804Z,991.59
2022-12-18T10:21:06.287Z,991.64
2022-12-18T10:22:03.690Z,991.67
2022-12-18T10:23:03.584Z,991.35
2022-12-18T10:24:03.620Z,991.50
2022-12-18T10:25:03.446Z,991.50
2022-12-18T10:26:03.553Z,991.50
2022-12-18T10:27:03.449Z,991.64
2022-12-18T10:28:03.665Z,991.77
2022-12-18T10:29:06.279Z,991.61
2022-12-18T10:30:03.459Z,991.61
2022-12-18T10:31:03.438Z,991.55
2022-12-18T10:32:03.231Z,991.58
2022-12-18T10:33:03.269Z,991.47
2022-12-18T10:34:03.341Z,991.45
2022-12-18T10:35:03.275Z,991.49
2022-12-18T10:36:03.244Z,991.36
2022-12-18T10:37:03.140Z,991.52
2022-12-18T10:38:03.763Z,991.47
2022-12-18T10:39:02.974Z,991.33
2022-12-18T10:40:03.063Z,991.49
2022-12-18T10:41:03.095Z,991.36
2022-12-18T10:42:03.782Z,991.22
2022-12-18T10:43:03.616Z,991.44
2022-12-18T10:44:03.552Z,991.27
2022-12-18T10:45:03.446Z,991.24
2022-12-18T10:46:03.677Z,991.33
2022-12-18T10:47:11.618Z,991.27
2022-12-18T10:48:03.413Z,991.32
2022-12-18T10:49:03.448Z,991.24
2022-12-18T10:50:03.326Z,991.27
2022-12-18T10:51:13.757Z,991.32
2022-12-18T10:52:03.293Z,991.21
2022-12-18T10:53:03.466Z,991.29
2022-12-18T10:54:04.221Z,991.29
2022-12-18T10:55:03.051Z,991.21
2022-12-18T10:56:03.019Z,991.35
2022-12-18T10:57:02.896Z,991.50
2022-12-18T10:58:03.815Z,991.50
2022-12-18T10:59:04.302Z,991.47
2022-12-18T11:00:02.936Z,991.58
2022-12-18T11:01:03.818Z,991.55
2022-12-18T11:02:04.098Z,991.61
2022-12-18T11:03:04.136Z,991.58
2022-12-18T11:04:03.744Z,991.75
2022-12-18T11:05:03.625Z,991.61
2022-12-18T11:06:03.575Z,991.88
2022-12-18T11:07:03.515Z,991.69
2022-12-18T11:08:03.502Z,991.55
2022-12-18T11:09:13.386Z,991.83
2022-12-18T11:10:03.400Z,991.66
2022-12-18T11:11:03.409Z,991.72
2022-12-18T11:12:03.358Z,991.58
2022-12-18T11:13:04.046Z,991.63
2022-12-18T11:14:03.812Z,991.52
2022-12-18T11:15:03.335Z,991.77
2022-12-18T11:16:03.452Z,991.82
2022-12-18T11:17:26.396Z,991.66
2022-12-18T11:18:03.813Z,991.69
2022-12-18T11:19:03.280Z,991.77
2022-12-18T11:20:03.238Z,991.55
2022-12-18T11:21:03.216Z,991.57
2022-12-18T11:22:03.191Z,991.88
2022-12-18T11:23:03.947Z,991.82
2022-12-18T11:24:03.020Z,991.71
2022-12-18T11:25:32.846Z,991.68
2022-12-18T11:26:03.043Z,991.49
2022-12-18T11:27:03.005Z,991.79
2022-12-18T11:28:02.993Z,991.65
2022-12-18T11:29:02.913Z,991.60
2022-12-18T11:30:02.906Z,991.70
2022-12-18T11:31:04.026Z,991.51
2022-12-18T11:32:03.775Z,991.54
2022-12-18T11:33:06.174Z,991.54
2022-12-18T11:34:30.342Z,991.44
2022-12-18T11:35:03.689Z,991.76
2022-12-18T11:36:03.746Z,991.67
2022-12-18T11:37:03.787Z,991.56
2022-12-18T11:38:04.158Z,991.56
2022-12-18T11:39:03.654Z,991.61
2022-12-18T11:40:03.684Z,991.67
2022-12-18T11:41:03.685Z,991.64
2022-12-18T11:42:03.697Z,991.78
2022-12-18T11:43:03.990Z,991.80
2022-12-18T11:44:03.580Z,991.69
2022-12-18T11:45:03.497Z,991.86
2022-12-18T11:46:03.744Z,991.91
2022-12-18T11:47:03.487Z,991.86
2022-12-18T11:48:04.134Z,991.88
2022-12-18T11:49:03.386Z,991.77
2022-12-18T11:50:03.256Z,991.91
2022-12-18T11:51:03.317Z,991.83
2022-12-18T11:52:03.278Z,991.83
2022-12-18T11:53:06.791Z,991.96
2022-12-18T11:54:03.170Z,991.94
2022-12-18T11:55:03.156Z,991.94
2022-12-18T11:56:03.142Z,991.99
2022-12-18T11:57:03.062Z,991.88
2022-12-18T11:58:02.919Z,991.96
2022-12-18T11:59:03.909Z,991.93
2022-12-18T12:00:03.823Z,991.91
2022-12-18T12:01:03.913Z,991.85
2022-12-18T12:02:04.125Z,991.77
2022-12-18T12:03:03.859Z,991.77
2022-12-18T12:04:03.891Z,991.79
2022-12-18T12:05:03.764Z,991.88
2022-12-18T12:06:03.758Z,991.98
2022-12-18T12:07:03.904Z,991.71
2022-12-18T12:08:03.586Z,991.68
2022-12-18T12:09:03.553Z,991.60
2022-12-18T12:10:03.439Z,991.71
2022-12-18T12:11:04.416Z,991.68
2022-12-18T12:12:03.306Z,991.82
2022-12-18T12:13:03.200Z,991.57
2022-12-18T12:14:03.276Z,991.70
2022-12-18T12:15:03.169Z,991.51
2022-12-18T12:16:03.275Z,991.76
2022-12-18T12:17:03.231Z,991.54
2022-12-18T12:18:11.220Z,991.62
2022-12-18T12:19:03.108Z,991.54
2022-12-18T12:20:03.736Z,991.84
2022-12-18T12:21:03.819Z,991.67
2022-12-18T12:22:03.034Z,991.56
2022-12-18T12:23:02.867Z,991.62
2022-12-18T12:24:02.888Z,991.86
2022-12-18T12:25:03.822Z,991.75
2022-12-18T12:26:03.806Z,991.70
2022-12-18T12:27:03.718Z,991.81
2022-12-18T12:28:03.841Z,991.81
2022-12-18T12:29:03.777Z,991.78
2022-12-18T12:30:03.728Z,991.72